sensor_id;sensor_type;location;lat;lon;timestamp;P1;durP1;ratioP1;P2;durP2;ratioP2
23494;SDS011;26107;50.832;2.950;2023-02-03T00:07:53;6.22;;;1.45;;
23494;SDS011;26107;50.832;2.950;2023-02-03T00:22:53;13.85;;;1.73;;
23494;SDS011;26107;50.832;2.950;2023-02-03T00:37:54;4.82;;;1.33;;
23494;SDS011;26107;50.832;2.950;2023-02-03T00:52:55;13.10;;;2.08;;
23494;SDS011;26107;50.832;2.950;2023-02-03T01:07:56;4.55;;;1.50;;
23494;SDS011;26107;50.832;2.950;2023-02-03T01:22:57;11.23;;;1.63;;
23494;SDS011;26107;50.832;2.950;2023-02-03T01:37:57;10.15;;;1.48;;
23494;SDS011;26107;50.832;2.950;2023-02-03T01:53:00;4.53;;;1.20;;
23494;SDS011;26107;50.832;2.950;2023-02-03T02:08:04;8.18;;;1.40;;
23494;SDS011;26107;50.832;2.950;2023-02-03T02:38:56;8.35;;;1.60;;
23494;SDS011;26107;50.832;2.950;2023-02-03T02:53:55;4.82;;;1.02;;
23494;SDS011;26107;50.832;2.950;2023-02-03T03:09:00;7.05;;;1.10;;
23494;SDS011;26107;50.832;2.950;2023-02-03T03:24:32;5.78;;;1.10;;
23494;SDS011;26107;50.832;2.950;2023-02-03T03:54:54;7.55;;;1.17;;
23494;SDS011;26107;50.832;2.950;2023-02-03T04:09:55;5.88;;;1.30;;
23494;SDS011;26107;50.832;2.950;2023-02-03T04:24:56;4.38;;;1.13;;
23494;SDS011;26107;50.832;2.950;2023-02-03T04:39:59;3.03;;;1.20;;
23494;SDS011;26107;50.832;2.950;2023-02-03T04:55:00;7.60;;;1.15;;
23494;SDS011;26107;50.832;2.950;2023-02-03T05:10:00;2.63;;;1.10;;
23494;SDS011;26107;50.832;2.950;2023-02-03T05:25:01;10.85;;;1.67;;
23494;SDS011;26107;50.832;2.950;2023-02-03T05:40:03;5.20;;;1.25;;
23494;SDS011;26107;50.832;2.950;2023-02-03T05:55:22;4.23;;;1.33;;
23494;SDS011;26107;50.832;2.950;2023-02-03T06:10:23;3.85;;;1.17;;
23494;SDS011;26107;50.832;2.950;2023-02-03T06:25:24;3.88;;;1.15;;
23494;SDS011;26107;50.832;2.950;2023-02-03T06:40:25;8.70;;;1.38;;
23494;SDS011;26107;50.832;2.950;2023-02-03T06:55:25;5.68;;;1.23;;
23494;SDS011;26107;50.832;2.950;2023-02-03T07:10:26;6.70;;;1.10;;
23494;SDS011;26107;50.832;2.950;2023-02-03T07:25:26;3.28;;;1.05;;
23494;SDS011;26107;50.832;2.950;2023-02-03T07:40:27;5.45;;;1.20;;
23494;SDS011;26107;50.832;2.950;2023-02-03T07:55:28;5.75;;;1.10;;
23494;SDS011;26107;50.832;2.950;2023-02-03T08:10:28;2.97;;;0.93;;
23494;SDS011;26107;50.832;2.950;2023-02-03T08:25:29;10.75;;;1.33;;
23494;SDS011;26107;50.832;2.950;2023-02-03T08:40:30;4.27;;;1.40;;
23494;SDS011;26107;50.832;2.950;2023-02-03T08:55:31;3.40;;;1.20;;
23494;SDS011;26107;50.832;2.950;2023-02-03T09:10:31;8.18;;;1.10;;
23494;SDS011;26107;50.832;2.950;2023-02-03T09:25:32;2.67;;;1.13;;
23494;SDS011;26107;50.832;2.950;2023-02-03T09:40:33;2.28;;;0.80;;
23494;SDS011;26107;50.832;2.950;2023-02-03T09:55:38;3.42;;;1.20;;
23494;SDS011;26107;50.832;2.950;2023-02-03T10:26:11;6.13;;;1.23;;
23494;SDS011;26107;50.832;2.950;2023-02-03T10:41:16;9.70;;;1.52;;
23494;SDS011;26107;50.832;2.950;2023-02-03T10:56:24;5.70;;;1.15;;
23494;SDS011;26107;50.832;2.950;2023-02-03T11:11:36;3.08;;;1.00;;
23494;SDS011;26107;50.832;2.950;2023-02-03T11:26:42;4.82;;;1.20;;
23494;SDS011;26107;50.832;2.950;2023-02-03T11:41:50;4.95;;;1.17;;
23494;SDS011;26107;50.832;2.950;2023-02-03T12:12:12;3.55;;;1.33;;
23494;SDS011;26107;50.832;2.950;2023-02-03T12:27:35;5.60;;;1.30;;
23494;SDS011;26107;50.832;2.950;2023-02-03T12:42:40;6.38;;;2.60;;
23494;SDS011;26107;50.832;2.950;2023-02-03T12:58:19;4.07;;;1.50;;
23494;SDS011;26107;50.832;2.950;2023-02-03T13:13:32;6.15;;;1.50;;
23494;SDS011;26107;50.832;2.950;2023-02-03T13:44:08;5.93;;;2.05;;
23494;SDS011;26107;50.832;2.950;2023-02-03T14:14:58;4.85;;;1.42;;
23494;SDS011;26107;50.832;2.950;2023-02-03T14:29:34;3.80;;;1.00;;
23494;SDS011;26107;50.832;2.950;2023-02-03T14:44:52;7.38;;;1.52;;
23494;SDS011;26107;50.832;2.950;2023-02-03T15:45:33;6.30;;;1.98;;
23494;SDS011;26107;50.832;2.950;2023-02-03T16:00:40;7.15;;;2.30;;
23494;SDS011;26107;50.832;2.950;2023-02-03T16:15:41;9.95;;;2.55;;
23494;SDS011;26107;50.832;2.950;2023-02-03T16:30:55;5.80;;;1.83;;
23494;SDS011;26107;50.832;2.950;2023-02-03T16:46:15;6.13;;;2.50;;
23494;SDS011;26107;50.832;2.950;2023-02-03T17:01:34;7.22;;;2.38;;
23494;SDS011;26107;50.832;2.950;2023-02-03T17:16:35;7.63;;;2.53;;
23494;SDS011;26107;50.832;2.950;2023-02-03T17:31:36;7.20;;;2.72;;
23494;SDS011;26107;50.832;2.950;2023-02-03T17:46:37;5.22;;;3.60;;
23494;SDS011;26107;50.832;2.950;2023-02-03T18:01:38;7.82;;;3.78;;
23494;SDS011;26107;50.832;2.950;2023-02-03T18:16:39;11.85;;;3.60;;
23494;SDS011;26107;50.832;2.950;2023-02-03T18:31:39;12.45;;;5.60;;
23494;SDS011;26107;50.832;2.950;2023-02-03T18:46:40;10.23;;;5.60;;
23494;SDS011;26107;50.832;2.950;2023-02-03T19:01:41;12.35;;;6.80;;
23494;SDS011;26107;50.832;2.950;2023-02-03T19:16:45;14.43;;;6.22;;
23494;SDS011;26107;50.832;2.950;2023-02-03T19:31:49;17.48;;;6.70;;
23494;SDS011;26107;50.832;2.950;2023-02-03T19:46:49;13.85;;;6.32;;
23494;SDS011;26107;50.832;2.950;2023-02-03T20:01:50;11.25;;;6.25;;
23494;SDS011;26107;50.832;2.950;2023-02-03T20:16:51;11.10;;;6.00;;
23494;SDS011;26107;50.832;2.950;2023-02-03T20:31:51;12.63;;;6.22;;
23494;SDS011;26107;50.832;2.950;2023-02-03T20:46:53;10.57;;;5.68;;
23494;SDS011;26107;50.832;2.950;2023-02-03T21:01:54;16.55;;;6.43;;
23494;SDS011;26107;50.832;2.950;2023-02-03T21:16:55;15.57;;;6.80;;
23494;SDS011;26107;50.832;2.950;2023-02-03T21:31:56;12.73;;;6.75;;
23494;SDS011;26107;50.832;2.950;2023-02-03T21:47:01;16.73;;;5.53;;
23494;SDS011;26107;50.832;2.950;2023-02-03T22:02:17;10.90;;;5.18;;
23494;SDS011;26107;50.832;2.950;2023-02-03T22:17:37;11.05;;;5.47;;
23494;SDS011;26107;50.832;2.950;2023-02-03T22:32:37;11.32;;;5.00;;
23494;SDS011;26107;50.832;2.950;2023-02-03T22:47:38;8.88;;;4.10;;
23494;SDS011;26107;50.832;2.950;2023-02-03T23:02:39;10.30;;;4.40;;
23494;SDS011;26107;50.832;2.950;2023-02-03T23:17:39;7.38;;;3.92;;
23494;SDS011;26107;50.832;2.950;2023-02-03T23:32:40;6.35;;;4.05;;
23494;SDS011;26107;50.832;2.950;2023-02-03T23:47:41;9.38;;;5.15;;
